Time;durP1;ratioP1;P1;durP2;ratioP2;P2;SDS_P1;SDS_P2;PMS_P1;PMS_P2;Temp;Humidity;BMP_temperature;BMP_pressure;BME280_temperature;BME280_humidity;BME280_pressure;Samples;Min_cycle;Max_cycle;Signal;HPM_P1;HPM_P2
2023/07/15 00:02:19;;;;;;;11.47;11.07;;;23.20;99.10;;;;;;4942814;28;20467;-81
2023/07/15 00:04:47;;;;;;;11.70;11.30;;;23.20;99.10;;;;;;4940494;28;20791;-82
2023/07/15 00:07:15;;;;;;;11.57;11.23;;;23.10;99.00;;;;;;4941839;28;20559;-83
2023/07/15 00:09:46;;;;;;;11.53;11.13;;;23.20;99.70;;;;;;4942708;28;20444;-82
2023/07/15 00:12:15;;;;;;;12.10;11.50;;;23.20;99.90;;;;;;4945189;28;21054;-83
2023/07/15 00:14:43;;;;;;;11.03;10.60;;;23.10;99.90;;;;;;4939802;28;20464;-79
2023/07/15 00:17:11;;;;;;;11.90;11.40;;;23.20;99.90;;;;;;4945888;28;20480;-81
2023/07/15 00:19:40;;;;;;;12.10;11.60;;;23.10;99.90;;;;;;4939821;28;20539;-80
2023/07/15 00:22:10;;;;;;;12.20;11.70;;;23.10;99.90;;;;;;4941090;28;20489;-81
2023/07/15 00:24:38;;;;;;;12.10;11.60;;;23.10;99.90;;;;;;4933997;28;20555;-84
2023/07/15 00:27:09;;;;;;;11.93;11.53;;;23.10;99.90;;;;;;4943477;28;20542;-83
2023/07/15 00:29:37;;;;;;;11.50;11.10;;;23.00;99.90;;;;;;4943698;28;20751;-82
2023/07/15 00:32:12;;;;;;;12.50;12.07;;;23.10;99.90;;;;;;4942128;28;20464;-81
2023/07/15 00:34:40;;;;;;;12.03;11.50;;;23.10;99.90;;;;;;4940037;28;20487;-81
2023/07/15 00:37:10;;;;;;;12.43;11.70;;;23.10;99.90;;;;;;4939253;28;20481;-81
2023/07/15 00:39:40;;;;;;;11.57;10.97;;;23.10;99.90;;;;;;4938334;28;20981;-82
2023/07/15 00:42:15;;;;;;;11.90;11.50;;;23.00;99.90;;;;;;4924142;29;20560;-80
2023/07/15 00:44:43;;;;;;;12.03;11.53;;;23.10;99.90;;;;;;4939921;28;20473;-80
2023/07/15 00:47:26;;;;;;;11.90;11.50;;;23.00;99.90;;;;;;4939307;28;20478;-82
2023/07/15 00:49:55;;;;;;;11.57;11.27;;;23.00;99.90;;;;;;4937715;28;20982;-80
2023/07/15 00:52:23;;;;;;;11.87;11.47;;;23.00;99.90;;;;;;4941186;28;20456;-80
2023/07/15 00:54:54;;;;;;;12.33;11.90;;;22.90;99.90;;;;;;4940864;28;20451;-83
2023/07/15 00:57:23;;;;;;;11.90;11.50;;;22.90;99.90;;;;;;4939226;28;20495;-82
2023/07/15 00:59:58;;;;;;;12.87;12.37;;;22.90;99.90;;;;;;4940619;28;20500;-82
2023/07/15 01:02:28;;;;;;;12.80;12.30;;;22.90;99.90;;;;;;4925049;28;20484;-81
2023/07/15 01:04:56;;;;;;;12.40;11.90;;;22.90;99.90;;;;;;4937472;28;20466;-79
2023/07/15 01:07:24;;;;;;;12.70;12.10;;;22.90;99.90;;;;;;4938681;28;20487;-81
2023/07/15 01:09:52;;;;;;;12.40;12.00;;;23.00;99.90;;;;;;4938279;28;20457;-79
2023/07/15 01:12:20;;;;;;;12.87;12.10;;;22.90;99.90;;;;;;4943982;28;20554;-80
2023/07/15 01:14:49;;;;;;;13.10;12.40;;;23.00;99.90;;;;;;4934175;28;20492;-81
2023/07/15 01:17:19;;;;;;;13.20;12.70;;;23.00;99.90;;;;;;4935587;28;20477;-80
2023/07/15 01:19:49;;;;;;;12.30;11.80;;;22.90;99.90;;;;;;4941496;28;20480;-80
2023/07/15 01:22:18;;;;;;;12.30;11.90;;;22.90;99.90;;;;;;4940849;28;20457;-80
2023/07/15 01:24:47;;;;;;;13.27;12.87;;;22.90;99.90;;;;;;4936222;28;20479;-81
2023/07/15 01:27:16;;;;;;;13.43;12.73;;;22.90;99.90;;;;;;4938952;28;20497;-80
2023/07/15 01:29:44;;;;;;;13.10;12.60;;;22.80;99.90;;;;;;4940214;28;20448;-80
2023/07/15 01:32:12;;;;;;;13.47;13.00;;;22.80;99.90;;;;;;4933302;28;20472;-81
2023/07/15 01:34:40;;;;;;;13.20;12.60;;;22.80;99.90;;;;;;4937360;28;20465;-81
2023/07/15 01:37:08;;;;;;;12.60;12.20;;;22.70;99.90;;;;;;4934932;28;20477;-81
2023/07/15 01:39:37;;;;;;;12.90;12.40;;;22.60;99.90;;;;;;4939795;28;20502;-80
2023/07/15 01:42:07;;;;;;;12.40;11.90;;;22.60;99.90;;;;;;4939469;28;20453;-80
2023/07/15 01:44:35;;;;;;;12.63;12.23;;;22.60;99.90;;;;;;4933502;28;20456;-80
2023/07/15 01:47:03;;;;;;;13.10;12.57;;;22.50;99.90;;;;;;4934017;28;20519;-80
2023/07/15 01:49:31;;;;;;;12.83;12.33;;;22.50;99.90;;;;;;4933621;28;20974;-80
2023/07/15 01:51:59;;;;;;;13.03;12.43;;;22.50;99.90;;;;;;4934831;28;20463;-80
2023/07/15 01:54:28;;;;;;;13.23;12.63;;;22.50;99.90;;;;;;4938198;28;20467;-80
2023/07/15 01:56:56;;;;;;;13.00;12.60;;;22.40;99.90;;;;;;4938621;28;20912;-80
2023/07/15 01:59:25;;;;;;;12.73;12.33;;;22.50;99.90;;;;;;4939545;28;20491;-80
2023/07/15 02:01:56;;;;;;;12.50;12.10;;;22.50;99.90;;;;;;4939082;28;20456;-81
2023/07/15 02:04:24;;;;;;;12.10;11.70;;;22.50;99.90;;;;;;4938360;28;20494;-80
2023/07/15 02:06:52;;;;;;;13.30;12.80;;;22.60;99.90;;;;;;4934177;28;20495;-79
2023/07/15 02:09:20;;;;;;;13.37;12.97;;;22.60;99.90;;;;;;4941248;28;20464;-80
2023/07/15 02:11:49;;;;;;;12.80;12.20;;;22.70;99.90;;;;;;4938635;28;20464;-81
2023/07/15 02:14:17;;;;;;;12.43;12.10;;;22.70;99.90;;;;;;4924032;28;20456;-80
2023/07/15 02:16:46;;;;;;;12.40;12.00;;;22.80;99.90;;;;;;4938574;28;21384;-80
2023/07/15 02:19:15;;;;;;;13.07;12.63;;;22.80;99.90;;;;;;4935376;28;20479;-81
2023/07/15 02:21:43;;;;;;;12.87;12.47;;;22.80;99.90;;;;;;4935574;28;20468;-81
2023/07/15 02:24:11;;;;;;;13.37;12.90;;;22.80;99.90;;;;;;4936826;28;20461;-80
2023/07/15 02:26:39;;;;;;;13.23;12.73;;;22.80;99.90;;;;;;4932901;28;20855;-80
2023/07/15 02:29:07;;;;;;;12.87;12.37;;;22.90;99.90;;;;;;4934752;28;20457;-81
2023/07/15 02:31:35;;;;;;;12.70;12.30;;;22.90;99.90;;;;;;4938152;28;20453;-80
2023/07/15 02:34:05;;;;;;;13.20;12.80;;;22.80;99.90;;;;;;4937725;28;20494;-80
2023/07/15 02:36:34;;;;;;;13.00;12.60;;;22.80;99.90;;;;;;4937556;28;20900;-81
2023/07/15 02:39:04;;;;;;;13.37;12.87;;;22.90;99.90;;;;;;4939148;28;20463;-83
2023/07/15 02:41:32;;;;;;;12.80;12.40;;;22.90;99.90;;;;;;4938490;28;20494;-80
2023/07/15 02:44:01;;;;;;;13.60;13.10;;;22.90;99.90;;;;;;4935107;28;20705;-81
2023/07/15 02:46:29;;;;;;;14.00;13.50;;;22.90;99.90;;;;;;4932178;28;20497;-81
2023/07/15 02:48:57;;;;;;;13.40;12.90;;;22.90;99.90;;;;;;4935257;28;20472;-82
2023/07/15 02:51:26;;;;;;;13.00;12.60;;;22.90;99.90;;;;;;4937437;28;20460;-82
2023/07/15 02:53:54;;;;;;;13.40;12.90;;;22.90;99.90;;;;;;4932872;28;20468;-82
2023/07/15 02:56:22;;;;;;;13.43;12.93;;;22.90;99.90;;;;;;4933708;28;20481;-82
2023/07/15 02:58:50;;;;;;;13.20;12.70;;;22.90;99.90;;;;;;4936168;28;20460;-80
2023/07/15 03:01:18;;;;;;;13.57;13.07;;;22.90;99.90;;;;;;4931830;28;20495;-79
2023/07/15 03:03:47;;;;;;;13.67;13.20;;;22.80;99.90;;;;;;4933260;28;20520;-80
2023/07/15 03:06:15;;;;;;;13.07;12.67;;;22.80;99.90;;;;;;4934186;28;20469;-79
2023/07/15 03:08:45;;;;;;;13.87;13.27;;;22.80;99.90;;;;;;4934063;28;20464;-80
2023/07/15 03:11:13;;;;;;;13.27;12.73;;;22.80;99.90;;;;;;4938271;28;20456;-81
2023/07/15 03:13:41;;;;;;;13.03;12.63;;;22.90;99.90;;;;;;4934172;28;20468;-80
2023/07/15 03:16:10;;;;;;;13.50;13.00;;;22.90;99.90;;;;;;4934005;28;20485;-80
2023/07/15 03:18:39;;;;;;;13.07;12.73;;;22.90;99.90;;;;;;4936814;28;20527;-81
2023/07/15 03:21:07;;;;;;;13.03;12.67;;;22.90;99.90;;;;;;4932273;28;20859;-79
2023/07/15 03:23:35;;;;;;;13.50;13.10;;;22.90;99.90;;;;;;4933249;28;20467;-80
2023/07/15 03:26:04;;;;;;;13.30;12.90;;;22.90;99.90;;;;;;4934436;28;20476;-80
2023/07/15 03:28:33;;;;;;;13.30;12.80;;;23.00;99.90;;;;;;4929527;28;20473;-79
2023/07/15 03:31:01;;;;;;;12.77;12.40;;;22.90;99.90;;;;;;4932580;28;20452;-79
2023/07/15 03:33:29;;;;;;;13.40;12.90;;;22.90;99.90;;;;;;4933635;28;20857;-79
2023/07/15 03:35:59;;;;;;;13.23;12.83;;;22.90;99.90;;;;;;4928024;28;20484;-80
2023/07/15 03:38:27;;;;;;;13.73;13.13;;;22.80;99.90;;;;;;4937076;28;21135;-78
2023/07/15 03:40:56;;;;;;;13.70;13.20;;;22.90;99.90;;;;;;4938660;28;20477;-78
2023/07/15 03:43:26;;;;;;;14.10;13.60;;;22.90;99.90;;;;;;4937386;28;20463;-79
2023/07/15 03:45:57;;;;;;;13.70;13.10;;;22.80;99.90;;;;;;4936241;28;20487;-80
2023/07/15 03:48:25;;;;;;;13.17;12.77;;;22.80;99.90;;;;;;4940870;28;20464;-79
2023/07/15 03:50:53;;;;;;;12.87;12.47;;;22.90;99.90;;;;;;4936432;28;20484;-81
2023/07/15 03:53:21;;;;;;;14.30;13.70;;;22.80;99.90;;;;;;4940535;28;20461;-80
2023/07/15 03:55:49;;;;;;;13.77;13.10;;;22.80;99.90;;;;;;4939260;28;20942;-80
2023/07/15 03:58:17;;;;;;;13.90;13.40;;;22.70;99.90;;;;;;4939869;28;21562;-81
2023/07/15 04:00:47;;;;;;;14.20;13.60;;;22.70;99.90;;;;;;4936863;28;20500;-79
2023/07/15 04:03:15;;;;;;;13.80;13.30;;;22.70;99.90;;;;;;4935502;28;20460;-79
2023/07/15 04:05:43;;;;;;;13.70;13.13;;;22.60;99.90;;;;;;4940608;28;20487;-80
2023/07/15 04:08:12;;;;;;;13.60;13.20;;;22.70;99.90;;;;;;4936513;28;20463;-81
2023/07/15 04:10:40;;;;;;;14.23;13.73;;;22.70;99.90;;;;;;4941875;28;20458;-82
2023/07/15 04:13:08;;;;;;;13.40;13.00;;;22.70;99.90;;;;;;4939242;28;20471;-80
2023/07/15 04:15:36;;;;;;;13.70;13.20;;;22.60;99.90;;;;;;4940950;28;20520;-81
2023/07/15 04:18:06;;;;;;;13.40;12.97;;;22.70;99.90;;;;;;4928205;28;20772;-82
2023/07/15 04:20:34;;;;;;;13.30;12.80;;;22.70;99.90;;;;;;4934203;28;20483;-80
2023/07/15 04:23:02;;;;;;;13.63;13.20;;;22.70;99.90;;;;;;4939064;28;20472;-80
2023/07/15 04:25:31;;;;;;;13.20;12.77;;;22.70;99.90;;;;;;4936933;28;20481;-79
2023/07/15 04:27:59;;;;;;;13.87;13.37;;;22.80;99.90;;;;;;4936624;28;20559;-80
2023/07/15 04:30:27;;;;;;;13.20;12.70;;;22.80;99.90;;;;;;4940395;28;20849;-79
2023/07/15 04:32:55;;;;;;;12.90;12.40;;;22.80;99.90;;;;;;4926638;28;20481;-79
2023/07/15 04:35:25;;;;;;;12.80;12.40;;;22.80;99.90;;;;;;4939270;28;20543;-79
2023/07/15 04:37:54;;;;;;;13.10;12.60;;;22.80;99.90;;;;;;4934545;28;20488;-78
2023/07/15 04:40:22;;;;;;;13.50;12.90;;;22.80;99.90;;;;;;4933000;28;20559;-79
2023/07/15 04:42:50;;;;;;;12.77;12.17;;;22.90;99.90;;;;;;4940645;28;20460;-79
2023/07/15 04:45:18;;;;;;;12.73;12.23;;;22.90;99.90;;;;;;4934697;28;20511;-80
2023/07/15 04:47:46;;;;;;;13.00;12.60;;;22.90;99.90;;;;;;4936160;28;20448;-80
2023/07/15 04:50:14;;;;;;;13.30;12.80;;;22.90;99.90;;;;;;4938351;28;20476;-80
2023/07/15 04:52:44;;;;;;;13.03;12.63;;;22.90;99.90;;;;;;4935210;28;20487;-80
2023/07/15 04:55:12;;;;;;;13.37;12.57;;;22.90;99.90;;;;;;4936489;28;20460;-80
2023/07/15 04:57:41;;;;;;;13.43;12.83;;;22.90;99.90;;;;;;4931972;28;20507;-79
2023/07/15 05:00:11;;;;;;;13.40;13.00;;;22.90;99.90;;;;;;4936519;28;20562;-80
2023/07/15 05:02:41;;;;;;;12.83;12.43;;;22.90;99.90;;;;;;4939382;28;20494;-82
2023/07/15 05:05:10;;;;;;;13.17;12.67;;;22.90;99.90;;;;;;4939622;28;20552;-81
2023/07/15 05:07:39;;;;;;;13.43;12.90;;;22.90;99.90;;;;;;4935088;28;20471;-79
2023/07/15 05:10:26;;;;;;;13.13;12.60;;;22.90;99.90;;;;;;4934668;28;20555;-78
2023/07/15 05:12:55;;;;;;;13.30;12.90;;;22.90;99.90;;;;;;4940560;28;20884;-79
2023/07/15 05:18:24;;;;;;;12.60;12.27;;;23.00;99.90;;;;;;5092776;27;20917;-80
2023/07/15 05:20:52;;;;;;;13.90;13.10;;;23.00;99.90;;;;;;5095941;28;20448;-79
2023/07/15 05:23:21;;;;;;;13.20;12.80;;;23.00;99.90;;;;;;5095179;28;20465;-80
2023/07/15 05:25:49;;;;;;;13.33;12.83;;;23.00;99.90;;;;;;5091880;28;20604;-80
2023/07/15 05:28:18;;;;;;;13.50;13.00;;;23.10;99.90;;;;;;5087604;28;20835;-79
2023/07/15 05:30:46;;;;;;;13.23;12.73;;;23.10;99.90;;;;;;5090167;28;20502;-80
2023/07/15 05:33:14;;;;;;;13.03;12.43;;;23.10;99.90;;;;;;5087429;28;20887;-79
2023/07/15 05:35:43;;;;;;;12.80;12.30;;;23.20;99.90;;;;;;5090952;28;20497;-79
2023/07/15 05:38:11;;;;;;;13.00;12.50;;;23.20;99.90;;;;;;5089551;28;20631;-78
2023/07/15 05:40:41;;;;;;;12.73;12.27;;;23.20;99.90;;;;;;5090016;28;21063;-81
2023/07/15 05:43:09;;;;;;;12.90;12.40;;;23.30;99.90;;;;;;5088586;28;20883;-78
2023/07/15 05:45:37;;;;;;;13.27;12.67;;;23.30;99.90;;;;;;5088469;28;21048;-79
2023/07/15 05:48:06;;;;;;;12.73;12.23;;;23.30;99.90;;;;;;5092076;28;20453;-81
2023/07/15 05:50:37;;;;;;;12.53;12.10;;;23.30;99.90;;;;;;5086098;28;20936;-79
2023/07/15 05:53:07;;;;;;;13.00;12.60;;;23.30;99.90;;;;;;5085997;28;20523;-81
2023/07/15 05:55:36;;;;;;;12.80;12.40;;;23.30;99.90;;;;;;5089871;28;20568;-80
2023/07/15 05:58:09;;;;;;;12.70;12.30;;;23.30;99.90;;;;;;5094150;28;20546;-80
2023/07/15 06:00:38;;;;;;;12.17;11.77;;;23.40;99.90;;;;;;5089233;28;20461;-79
2023/07/15 06:03:08;;;;;;;13.00;12.50;;;23.40;99.90;;;;;;5080435;28;20533;-80
2023/07/15 06:05:37;;;;;;;11.83;11.53;;;23.40;99.90;;;;;;5086795;28;20940;-79
2023/07/15 06:08:07;;;;;;;12.50;12.10;;;23.40;99.90;;;;;;5087984;28;20445;-80
2023/07/15 06:10:35;;;;;;;12.17;11.77;;;23.40;99.90;;;;;;5082474;28;20951;-80
2023/07/15 06:13:03;;;;;;;12.80;12.20;;;23.40;99.90;;;;;;5085628;28;20445;-79
2023/07/15 06:15:31;;;;;;;13.60;12.87;;;23.50;99.90;;;;;;5082679;28;20488;-80
2023/07/15 06:17:59;;;;;;;13.20;12.70;;;23.50;99.90;;;;;;5087154;28;20982;-80
2023/07/15 06:20:28;;;;;;;13.10;12.30;;;23.50;99.90;;;;;;5091051;28;20544;-81
2023/07/15 06:22:56;;;;;;;13.02;12.52;;;23.50;99.90;;;;;;5092790;28;20506;-79
2023/07/15 06:25:29;;;;;;;12.23;11.83;;;23.50;99.90;;;;;;5091911;28;20207;-79
2023/07/15 06:27:57;;;;;;;13.97;13.47;;;23.50;99.90;;;;;;5086995;28;20967;-79
2023/07/15 06:30:26;;;;;;;15.03;14.23;;;23.60;99.90;;;;;;5076819;28;20537;-80
2023/07/15 06:32:55;;;;;;;14.70;14.00;;;23.70;99.90;;;;;;5070641;28;20753;-79
2023/07/15 06:35:23;;;;;;;17.40;16.40;;;23.70;99.90;;;;;;5076818;28;20441;-80
2023/07/15 06:37:52;;;;;;;13.20;12.50;;;23.70;99.90;;;;;;5078456;28;21015;-79
2023/07/15 06:40:20;;;;;;;16.10;15.27;;;23.80;99.90;;;;;;5074818;28;20993;-79
2023/07/15 06:42:50;;;;;;;13.30;12.80;;;23.90;99.90;;;;;;5078953;28;20462;-79
2023/07/15 06:45:21;;;;;;;13.90;13.20;;;24.00;99.90;;;;;;5075134;28;20845;-79
2023/07/15 06:47:49;;;;;;;13.00;12.60;;;24.10;99.90;;;;;;5074635;28;20831;-80
2023/07/15 06:50:17;;;;;;;12.80;12.30;;;24.10;99.90;;;;;;5073302;28;20470;-80
2023/07/15 06:52:46;;;;;;;12.70;12.20;;;24.20;99.90;;;;;;5075264;28;20483;-81
2023/07/15 06:55:15;;;;;;;12.60;12.13;;;24.20;99.90;;;;;;5074146;28;20955;-80
2023/07/15 06:57:43;;;;;;;13.00;12.60;;;24.30;99.90;;;;;;5077686;28;20466;-79
2023/07/15 07:00:14;;;;;;;12.53;12.07;;;24.40;99.90;;;;;;5071508;28;20456;-78
2023/07/15 07:02:42;;;;;;;13.43;12.83;;;24.50;99.90;;;;;;5073551;28;20828;-80
2023/07/15 07:05:10;;;;;;;12.60;12.20;;;24.50;99.90;;;;;;5077984;28;20515;-80
2023/07/15 07:07:38;;;;;;;13.20;12.60;;;24.60;99.90;;;;;;5076582;28;20446;-79
2023/07/15 07:10:07;;;;;;;13.20;12.80;;;24.70;99.90;;;;;;5078387;28;20457;-82
2023/07/15 07:12:36;;;;;;;13.07;12.67;;;24.70;99.90;;;;;;5083994;28;20716;-83
2023/07/15 07:15:04;;;;;;;13.40;12.60;;;24.80;99.90;;;;;;5081502;28;20548;-81
2023/07/15 07:17:45;;;;;;;12.90;12.50;;;24.80;99.90;;;;;;5077455;28;20485;-80
2023/07/15 07:20:14;;;;;;;12.40;12.00;;;24.90;99.90;;;;;;5077218;28;20462;-82
2023/07/15 07:22:48;;;;;;;12.83;12.30;;;25.00;99.90;;;;;;5078088;28;20462;-77
2023/07/15 07:25:16;;;;;;;12.57;12.10;;;25.00;99.90;;;;;;5073574;28;20991;-78
2023/07/15 07:27:44;;;;;;;13.30;12.60;;;25.00;99.90;;;;;;5074675;28;20433;-81
2023/07/15 07:30:13;;;;;;;13.80;13.27;;;25.00;99.90;;;;;;5079917;28;20211;-82
2023/07/15 07:32:42;;;;;;;13.93;12.97;;;25.20;99.90;;;;;;5067209;28;21271;-82
2023/07/15 07:35:18;;;;;;;12.40;11.97;;;25.20;99.90;;;;;;5073049;28;20516;-81
2023/07/15 07:38:12;;;;;;;12.27;11.87;;;25.30;99.90;;;;;;5086144;28;20462;-86
2023/07/15 07:40:46;;;;;;;13.10;12.50;;;25.30;99.90;;;;;;5074132;28;20457;-84
2023/07/15 07:43:14;;;;;;;13.00;12.50;;;25.40;99.90;;;;;;5084505;28;20629;-84
2023/07/15 07:45:42;;;;;;;12.40;12.10;;;25.40;99.90;;;;;;5077488;28;20475;-86
2023/07/15 07:48:12;;;;;;;13.07;12.57;;;25.50;99.90;;;;;;5072871;28;20470;-84
2023/07/15 07:50:40;;;;;;;13.60;12.87;;;25.50;99.90;;;;;;5072312;28;20694;-84
2023/07/15 07:53:09;;;;;;;13.43;12.93;;;25.60;99.90;;;;;;5072976;28;20461;-83
2023/07/15 07:55:38;;;;;;;12.93;12.53;;;25.60;99.90;;;;;;5065989;28;20483;-78
2023/07/15 07:58:06;;;;;;;12.70;12.30;;;25.80;99.90;;;;;;5071465;28;20470;-83
2023/07/15 08:00:34;;;;;;;12.73;12.23;;;25.80;99.90;;;;;;5066873;28;21036;-83
2023/07/15 08:03:05;;;;;;;12.27;11.87;;;25.80;99.90;;;;;;5069015;28;20453;-84
2023/07/15 08:05:46;;;;;;;12.50;12.10;;;25.80;99.90;;;;;;5068403;28;21020;-84
2023/07/15 08:08:17;;;;;;;13.27;12.90;;;25.90;99.90;;;;;;5066430;28;20650;-84
2023/07/15 08:10:48;;;;;;;11.97;11.67;;;25.90;99.90;;;;;;5075927;28;20462;-84
2023/07/15 08:13:47;;;;;;;12.80;12.40;;;26.00;99.90;;;;;;5077863;28;20803;-83
2023/07/15 08:16:51;;;;;;;13.33;12.57;;;26.10;99.90;;;;;;5072705;28;20485;-84
2023/07/15 08:19:26;;;;;;;12.87;12.43;;;26.20;99.90;;;;;;5012581;28;20714;-86
2023/07/15 08:22:24;;;;;;;12.23;11.83;;;26.20;99.90;;;;;;5012795;28;20464;-86
2023/07/15 08:24:55;;;;;;;13.03;12.50;;;26.30;99.90;;;;;;5055039;28;20466;-86
2023/07/15 08:27:54;;;;;;;12.10;11.70;;;26.40;99.90;;;;;;5084068;28;20507;-86
2023/07/15 08:30:26;;;;;;;12.30;11.90;;;26.30;99.90;;;;;;5075747;28;20954;-85
2023/07/15 08:33:01;;;;;;;12.13;11.80;;;26.50;99.90;;;;;;5073948;28;20988;-82
2023/07/15 08:35:40;;;;;;;13.27;12.77;;;26.50;99.90;;;;;;5076627;28;20458;-86
2023/07/15 08:38:17;;;;;;;12.57;12.17;;;26.60;99.90;;;;;;5078478;28;20474;-86
2023/07/15 08:41:10;;;;;;;12.53;12.13;;;26.60;99.90;;;;;;5079535;28;20455;-84
2023/07/15 08:44:10;;;;;;;11.70;11.30;;;26.80;99.90;;;;;;5069192;28;20516;-84
2023/07/15 08:46:46;;;;;;;11.93;11.63;;;26.80;99.90;;;;;;5073015;28;20497;-86
2023/07/15 08:49:19;;;;;;;12.40;11.90;;;26.90;99.90;;;;;;5069851;28;20447;-86
2023/07/15 08:51:47;;;;;;;12.80;12.13;;;26.90;99.90;;;;;;5077463;28;20446;-85
2023/07/15 08:54:17;;;;;;;13.03;12.53;;;27.00;99.90;;;;;;5079922;28;20807;-82
2023/07/15 08:57:03;;;;;;;12.80;12.37;;;27.00;99.90;;;;;;5072953;28;20560;-83
2023/07/15 09:00:15;;;;;;;12.53;12.13;;;27.10;99.90;;;;;;5080603;28;20470;-86
2023/07/15 09:02:54;;;;;;;12.93;12.30;;;27.20;99.90;;;;;;5079075;28;20437;-85
2023/07/15 09:05:23;;;;;;;12.60;12.20;;;27.20;99.90;;;;;;5071356;28;20455;-85
2023/07/15 09:07:59;;;;;;;12.33;11.93;;;27.30;99.90;;;;;;5082019;28;20446;-84
2023/07/15 09:11:05;;;;;;;11.90;11.50;;;27.30;99.90;;;;;;5082059;28;20453;-86
2023/07/15 09:13:49;;;;;;;11.97;11.67;;;27.40;99.90;;;;;;5079399;28;20447;-83
2023/07/15 09:16:32;;;;;;;12.70;12.00;;;27.40;99.90;;;;;;5074484;28;20552;-86
2023/07/15 09:19:35;;;;;;;12.70;12.30;;;27.50;99.90;;;;;;5077795;28;20471;-84
2023/07/15 09:22:12;;;;;;;13.30;12.70;;;27.40;99.90;;;;;;5081661;28;21009;-85
2023/07/15 09:24:49;;;;;;;12.93;12.40;;;27.50;99.90;;;;;;5080157;28;21021;-85
2023/07/15 09:27:19;;;;;;;13.37;12.97;;;27.60;99.90;;;;;;5078319;28;20527;-85
2023/07/15 09:29:52;;;;;;;12.40;11.90;;;27.60;99.90;;;;;;5078294;28;20541;-82
2023/07/15 09:33:24;;;;;;;12.00;11.70;;;27.70;99.90;;;;;;5077519;28;20457;-86
2023/07/15 09:35:59;;;;;;;12.50;12.10;;;27.60;99.90;;;;;;5081465;28;20556;-86
2023/07/15 09:38:53;;;;;;;12.17;11.77;;;27.70;99.90;;;;;;5077252;28;20538;-85
2023/07/15 09:44:15;;;;;;;12.40;11.90;;;27.90;99.90;;;;;;5078641;28;20458;-89
2023/07/15 09:46:54;;;;;;;11.60;11.30;;;28.00;99.90;;;;;;5076956;28;20469;-86
2023/07/15 09:49:24;;;;;;;12.60;12.10;;;28.00;99.90;;;;;;5077769;28;20966;-87
2023/07/15 09:51:58;;;;;;;12.30;12.00;;;28.10;99.90;;;;;;5077742;28;20489;-86
2023/07/15 09:54:27;;;;;;;12.00;11.63;;;28.10;99.90;;;;;;5079802;28;20878;-87
2023/07/15 09:57:22;;;;;;;12.83;12.33;;;28.10;99.90;;;;;;5078020;28;20998;-86
2023/07/15 10:00:05;;;;;;;11.50;11.20;;;28.20;99.90;;;;;;5074533;28;20508;-87
2023/07/15 10:03:05;;;;;;;12.80;12.30;;;28.20;99.90;;;;;;5077652;28;20867;-87
2023/07/15 10:05:35;;;;;;;12.10;11.77;;;28.30;99.90;;;;;;5037713;28;20999;-84
2023/07/15 10:08:17;;;;;;;13.17;12.70;;;28.30;99.90;;;;;;5070755;28;20883;-86
2023/07/15 10:10:51;;;;;;;12.27;11.87;;;28.40;99.90;;;;;;5082814;28;20449;-85
2023/07/15 10:13:27;;;;;;;11.07;10.77;;;28.50;99.90;;;;;;5080398;28;20472;-86
2023/07/15 10:16:05;;;;;;;10.93;10.63;;;28.50;99.90;;;;;;5078069;28;21190;-85
2023/07/15 10:18:34;;;;;;;11.33;10.90;;;28.50;99.90;;;;;;5078936;28;20466;-86
2023/07/15 10:21:53;;;;;;;11.03;10.63;;;28.50;99.90;;;;;;5080626;28;20445;-85
2023/07/15 10:24:32;;;;;;;10.80;10.43;;;28.60;99.90;;;;;;5079380;28;20536;-83
2023/07/15 10:27:11;;;;;;;11.53;11.13;;;28.60;99.90;;;;;;5076736;28;20474;-84
2023/07/15 10:29:48;;;;;;;11.37;10.97;;;28.70;99.90;;;;;;5081540;28;20454;-89
2023/07/15 10:32:24;;;;;;;10.73;10.33;;;28.70;99.90;;;;;;5086489;28;20508;-88
2023/07/15 10:38:21;;;;;;;10.93;10.53;;;28.80;99.90;;;;;;4943697;28;20550;-86
2023/07/15 10:41:02;;;;;;;10.57;10.13;;;28.80;99.90;;;;;;4944498;28;20479;-88
2023/07/15 10:44:34;;;;;;;10.10;9.80;;;28.90;99.90;;;;;;4944221;28;20452;-85
2023/07/15 10:47:10;;;;;;;10.93;10.53;;;28.80;99.90;;;;;;4951507;23;20502;-87
2023/07/15 10:49:48;;;;;;;9.87;9.67;;;28.70;99.90;;;;;;4940821;29;20555;-87
2023/07/15 10:53:18;;;;;;;10.07;9.77;;;28.80;99.90;;;;;;4939895;29;20913;-86
2023/07/15 10:56:06;;;;;;;9.83;9.53;;;28.80;99.90;;;;;;4925000;29;20917;-86
2023/07/15 11:03:00;;;;;;;10.90;10.60;;;28.70;99.90;;;;;;4918939;29;20522;-86
2023/07/15 11:08:48;;;;;;;10.30;10.00;;;28.70;99.90;;;;;;4923484;29;20479;-87
2023/07/15 11:11:16;;;;;;;10.27;10.07;;;28.80;99.90;;;;;;4939619;29;20469;-90
2023/07/15 11:13:46;;;;;;;11.80;11.40;;;28.70;99.90;;;;;;4941368;29;20449;-84
2023/07/15 11:16:14;;;;;;;10.90;10.60;;;28.70;99.90;;;;;;4940749;28;20524;-84
2023/07/15 11:18:43;;;;;;;11.17;10.77;;;28.80;99.90;;;;;;4942670;29;20472;-84
2023/07/15 11:21:15;;;;;;;10.43;10.03;;;28.90;99.90;;;;;;4938074;29;21080;-86
2023/07/15 11:23:45;;;;;;;10.70;10.40;;;29.20;99.90;;;;;;4943894;29;20460;-85
2023/07/15 11:26:17;;;;;;;10.10;9.90;;;29.20;99.90;;;;;;4938468;28;20475;-87
2023/07/15 11:28:50;;;;;;;9.87;9.67;;;29.30;99.90;;;;;;4936381;29;20472;-85
2023/07/15 11:31:21;;;;;;;11.23;10.90;;;29.50;99.90;;;;;;4941831;29;20448;-84
2023/07/15 11:33:52;;;;;;;10.20;9.90;;;29.40;99.90;;;;;;4936243;29;20467;-85
2023/07/15 11:36:21;;;;;;;10.03;9.73;;;29.40;99.90;;;;;;4933893;28;20485;-84
2023/07/15 11:38:50;;;;;;;10.70;10.40;;;29.30;99.90;;;;;;4929112;29;20464;-87
2023/07/15 11:41:18;;;;;;;9.80;9.50;;;29.50;99.90;;;;;;4939429;29;20479;-82
2023/07/15 11:43:50;;;;;;;9.13;8.93;;;29.60;99.90;;;;;;4923736;29;20835;-84
2023/07/15 11:46:19;;;;;;;9.80;9.50;;;29.70;99.90;;;;;;4937461;28;20575;-86
2023/07/15 11:48:47;;;;;;;9.87;9.50;;;29.60;99.90;;;;;;4925686;29;20501;-85
2023/07/15 11:51:15;;;;;;;10.10;9.70;;;29.40;99.90;;;;;;4940767;29;20495;-84
2023/07/15 11:53:46;;;;;;;9.43;9.13;;;29.40;99.90;;;;;;4935070;29;20854;-84
2023/07/15 11:56:33;;;;;;;9.60;9.30;;;29.40;99.90;;;;;;4939498;29;20607;-87
2023/07/15 11:59:01;;;;;;;9.57;9.27;;;29.50;99.90;;;;;;4941841;29;20460;-88
2023/07/15 12:01:29;;;;;;;10.20;9.77;;;29.50;99.90;;;;;;4947096;29;20857;-84
2023/07/15 12:04:01;;;;;;;10.00;9.70;;;29.50;99.90;;;;;;4930777;29;20455;-86
2023/07/15 12:06:30;;;;;;;10.03;9.73;;;29.40;99.90;;;;;;4929551;28;20488;-86
2023/07/15 12:09:04;;;;;;;10.20;9.87;;;29.40;99.90;;;;;;4938801;29;20452;-85
2023/07/15 12:11:34;;;;;;;10.67;10.37;;;29.40;99.90;;;;;;4941574;29;20539;-84
2023/07/15 12:14:04;;;;;;;11.20;10.87;;;29.30;99.90;;;;;;4917473;29;20556;-83
2023/07/15 12:16:33;;;;;;;11.20;10.70;;;29.30;99.90;;;;;;4936905;29;20480;-82
2023/07/15 12:19:02;;;;;;;11.17;10.83;;;29.30;99.90;;;;;;4933618;29;20523;-84
2023/07/15 12:21:31;;;;;;;12.90;12.30;;;29.30;99.90;;;;;;4939228;29;20520;-86
2023/07/15 12:23:59;;;;;;;12.40;11.90;;;29.50;99.90;;;;;;4934010;29;20558;-86
2023/07/15 12:26:29;;;;;;;11.60;11.30;;;29.60;99.90;;;;;;4930738;29;20476;-83
2023/07/15 12:28:58;;;;;;;12.10;11.60;;;29.60;99.90;;;;;;4934627;29;20488;-85
2023/07/15 12:31:26;;;;;;;11.63;11.23;;;29.90;99.90;;;;;;4935880;29;20542;-87
2023/07/15 12:33:54;;;;;;;12.97;12.37;;;30.00;99.90;;;;;;4939843;29;20464;-82
2023/07/15 12:36:22;;;;;;;12.83;12.30;;;29.90;99.90;;;;;;4934958;28;20492;-84
2023/07/15 12:38:51;;;;;;;11.80;11.20;;;29.80;99.90;;;;;;4938201;29;20986;-84
2023/07/15 12:41:19;;;;;;;11.67;11.20;;;29.70;99.90;;;;;;4938561;29;20480;-83
2023/07/15 12:43:49;;;;;;;12.40;11.80;;;29.70;99.90;;;;;;4934162;29;20470;-86
2023/07/15 12:46:18;;;;;;;11.57;11.17;;;29.60;99.90;;;;;;4936855;28;20966;-87
2023/07/15 12:48:48;;;;;;;11.27;10.97;;;29.70;99.90;;;;;;4937764;29;21243;-85
2023/07/15 12:51:17;;;;;;;12.17;11.57;;;29.70;99.90;;;;;;4935740;29;20469;-84
2023/07/15 12:53:45;;;;;;;11.43;11.13;;;29.90;99.90;;;;;;4936258;29;20457;-87
2023/07/15 12:56:13;;;;;;;11.50;11.00;;;30.00;99.90;;;;;;4935254;29;20484;-85
2023/07/15 12:58:43;;;;;;;11.57;11.17;;;29.90;99.90;;;;;;4930233;29;20455;-84
2023/07/15 13:01:12;;;;;;;11.03;10.67;;;30.00;99.90;;;;;;4936087;29;20468;-83
2023/07/15 13:03:40;;;;;;;12.23;11.60;;;30.00;99.90;;;;;;4930261;29;20808;-85
2023/07/15 13:06:10;;;;;;;11.63;11.20;;;29.90;99.90;;;;;;4934436;29;20492;-86
2023/07/15 13:08:38;;;;;;;12.40;11.90;;;29.90;99.90;;;;;;4937684;29;20480;-86
2023/07/15 13:11:07;;;;;;;11.30;11.00;;;30.00;99.90;;;;;;4938070;29;20455;-84